createdAt,value
2018-07-25T00:02:22.641Z,24.60
2018-07-25T00:04:51.683Z,24.50
2018-07-25T00:07:20.672Z,24.50
2018-07-25T00:09:49.683Z,24.50
2018-07-25T00:12:18.729Z,24.50
2018-07-25T00:14:47.772Z,24.40
2018-07-25T00:17:17.214Z,24.40
2018-07-25T00:19:46.209Z,24.40
2018-07-25T00:22:15.449Z,24.30
2018-07-25T00:24:44.738Z,24.30
2018-07-25T00:27:13.768Z,24.30
2018-07-25T00:29:42.930Z,24.30
2018-07-25T00:32:11.963Z,24.30
2018-07-25T00:34:41.269Z,24.30
2018-07-25T00:37:10.288Z,24.30
2018-07-25T00:39:39.414Z,24.20
2018-07-25T00:42:08.391Z,24.20
2018-07-25T00:44:37.471Z,24.20
2018-07-25T00:47:06.591Z,24.20
2018-07-25T00:49:35.575Z,24.10
2018-07-25T00:54:33.481Z,24.00
2018-07-25T00:57:02.430Z,24.00
2018-07-25T00:59:31.441Z,24.00
2018-07-25T01:02:00.447Z,24.00
2018-07-25T01:04:29.509Z,23.90
2018-07-25T01:06:58.525Z,23.90
2018-07-25T01:09:27.520Z,23.80
2018-07-25T01:11:56.603Z,23.80
2018-07-25T01:14:25.671Z,23.80
2018-07-25T01:16:54.690Z,23.70
2018-07-25T01:19:23.643Z,23.70
2018-07-25T01:21:52.652Z,23.70
2018-07-25T01:24:21.671Z,23.60
2018-07-25T01:26:50.691Z,23.60
2018-07-25T01:29:19.754Z,23.60
2018-07-25T01:31:48.770Z,23.50
2018-07-25T01:34:17.840Z,23.50
2018-07-25T01:36:46.867Z,23.50
2018-07-25T01:39:15.855Z,23.50
2018-07-25T01:41:44.930Z,23.40
2018-07-25T01:44:13.906Z,23.40
2018-07-25T01:46:42.947Z,23.40
2018-07-25T01:49:12.911Z,23.40
2018-07-25T01:51:41.936Z,23.30
2018-07-25T01:54:10.994Z,23.30
2018-07-25T01:56:40.018Z,23.30
2018-07-25T01:59:09.043Z,23.30
2018-07-25T02:01:38.043Z,23.30
2018-07-25T02:04:07.010Z,23.30
2018-07-25T02:06:36.039Z,23.30
2018-07-25T02:09:08.427Z,23.20
2018-07-25T02:11:37.466Z,23.20
2018-07-25T02:14:06.487Z,23.20
2018-07-25T02:16:35.486Z,23.20
2018-07-25T02:19:04.498Z,23.20
2018-07-25T02:21:33.555Z,23.10
2018-07-25T02:24:09.238Z,23.20
2018-07-25T02:26:38.303Z,23.10
2018-07-25T02:29:07.299Z,23.20
2018-07-25T02:31:36.297Z,23.10
2018-07-25T02:34:10.658Z,23.20
2018-07-25T02:36:39.735Z,23.20
2018-07-25T02:39:10.352Z,23.10
2018-07-25T02:41:39.490Z,23.10
2018-07-25T02:44:08.592Z,23.10
2018-07-25T02:46:37.564Z,23.10
2018-07-25T02:49:06.633Z,23.10
2018-07-25T02:51:35.691Z,23.00
2018-07-25T02:54:05.057Z,23.00
2018-07-25T02:56:34.104Z,23.00
2018-07-25T02:59:04.261Z,23.00
2018-07-25T03:01:33.405Z,23.00
2018-07-25T03:04:02.503Z,23.00
2018-07-25T03:06:31.454Z,22.90
2018-07-25T03:09:00.528Z,22.90
2018-07-25T03:13:58.099Z,22.90
2018-07-25T03:16:27.108Z,22.90
2018-07-25T03:18:56.075Z,22.90
2018-07-25T03:21:25.067Z,22.80
2018-07-25T03:23:54.147Z,22.80
2018-07-25T03:26:23.141Z,22.80
2018-07-25T03:28:52.095Z,22.80
2018-07-25T03:31:21.137Z,22.70
2018-07-25T03:33:50.050Z,22.70
2018-07-25T03:36:19.013Z,22.70
2018-07-25T03:38:47.980Z,22.60
2018-07-25T03:41:16.926Z,22.60
2018-07-25T03:43:45.911Z,22.60
2018-07-25T03:46:14.886Z,22.50
2018-07-25T03:48:43.834Z,22.50
2018-07-25T03:51:12.807Z,22.50
2018-07-25T03:53:41.779Z,22.50
2018-07-25T03:56:10.712Z,22.50
2018-07-25T03:58:39.698Z,22.40
2018-07-25T04:01:08.656Z,22.40
2018-07-25T04:03:37.656Z,22.40
2018-07-25T04:06:06.629Z,22.40
2018-07-25T04:08:35.616Z,22.40
2018-07-25T04:11:04.580Z,22.50
2018-07-25T04:13:33.591Z,22.40
2018-07-25T04:16:02.578Z,22.50
2018-07-25T04:18:31.627Z,22.50
2018-07-25T04:21:01.177Z,22.50
2018-07-25T04:23:30.212Z,22.60
2018-07-25T04:25:59.203Z,22.60
2018-07-25T04:28:28.201Z,22.70
2018-07-25T04:30:57.229Z,22.80
2018-07-25T04:33:26.214Z,22.90
2018-07-25T04:35:55.162Z,22.90
2018-07-25T04:40:59.660Z,23.10
2018-07-25T04:43:28.618Z,23.20
2018-07-25T04:45:57.604Z,23.20
2018-07-25T04:48:26.579Z,23.30
2018-07-25T04:50:55.540Z,23.30
2018-07-25T04:53:24.940Z,23.40
2018-07-25T04:55:53.966Z,23.50
2018-07-25T04:58:23.027Z,23.50
2018-07-25T05:00:52.004Z,23.60
2018-07-25T05:03:20.939Z,23.70
2018-07-25T05:05:50.003Z,23.70
2018-07-25T05:08:18.958Z,23.80
2018-07-25T05:10:47.998Z,23.90
2018-07-25T05:13:16.971Z,24.00
2018-07-25T05:15:45.991Z,24.00
2018-07-25T05:18:14.968Z,24.10
2018-07-25T05:20:43.949Z,24.20
2018-07-25T05:23:12.936Z,24.20
2018-07-25T05:25:41.939Z,24.30
2018-07-25T05:28:10.958Z,24.40
2018-07-25T05:30:39.943Z,24.40
2018-07-25T05:33:08.899Z,24.50
2018-07-25T05:35:37.867Z,24.50
2018-07-25T05:38:07.045Z,24.60
2018-07-25T05:40:35.987Z,24.70
2018-07-25T05:43:04.991Z,24.80
2018-07-25T05:45:34.039Z,24.80
2018-07-25T05:48:03.080Z,24.90
2018-07-25T05:50:32.092Z,25.10
2018-07-25T05:53:01.105Z,25.10
2018-07-25T05:55:30.149Z,25.20
2018-07-25T05:57:59.102Z,25.40
2018-07-25T06:00:28.126Z,25.50
2018-07-25T06:02:57.228Z,25.60
2018-07-25T06:05:26.080Z,25.70
2018-07-25T06:07:55.023Z,25.80
2018-07-25T06:10:24.027Z,25.90
2018-07-25T06:12:52.995Z,26.00
2018-07-25T06:15:21.975Z,26.10
2018-07-25T06:17:50.944Z,26.10
2018-07-25T06:20:19.963Z,26.20
2018-07-25T06:22:48.931Z,26.30
2018-07-25T06:25:17.903Z,26.30
2018-07-25T06:27:47.199Z,26.40
2018-07-25T06:30:16.154Z,26.60
2018-07-25T06:32:45.135Z,26.70
2018-07-25T06:35:14.107Z,26.70
2018-07-25T06:37:43.119Z,26.80
2018-07-25T06:40:12.119Z,26.90
2018-07-25T06:42:41.079Z,27.10
2018-07-25T06:45:10.147Z,27.20
2018-07-25T06:47:39.130Z,27.20
2018-07-25T06:50:08.848Z,27.30
2018-07-25T06:52:37.858Z,27.30
2018-07-25T06:55:06.818Z,27.40
2018-07-25T06:57:35.827Z,27.40
2018-07-25T07:02:33.944Z,27.50
2018-07-25T07:05:03.178Z,27.60
2018-07-25T07:07:32.142Z,27.70
2018-07-25T07:10:01.200Z,27.80
2018-07-25T07:12:30.176Z,27.80
2018-07-25T07:14:59.159Z,27.90
2018-07-25T07:17:28.260Z,28.00
2018-07-25T07:19:57.175Z,28.00
2018-07-25T07:22:26.175Z,28.20
2018-07-25T07:24:55.220Z,28.20
2018-07-25T07:27:24.310Z,28.30
2018-07-25T07:29:53.326Z,28.50
2018-07-25T07:32:22.323Z,28.60
2018-07-25T07:34:51.312Z,28.70
2018-07-25T07:37:20.494Z,28.70
2018-07-25T07:39:49.415Z,28.70
2018-07-25T07:42:18.600Z,28.70
2018-07-25T07:44:47.596Z,28.70
2018-07-25T07:47:17.023Z,28.70
2018-07-25T07:49:46.212Z,28.70
2018-07-25T07:52:15.196Z,28.70
2018-07-25T07:54:44.382Z,28.80
2018-07-25T07:57:13.343Z,28.90
2018-07-25T07:59:42.375Z,29.00
2018-07-25T08:04:40.036Z,29.20
2018-07-25T08:07:09.072Z,29.20
2018-07-25T08:12:06.838Z,29.40
2018-07-25T08:14:35.983Z,29.60
2018-07-25T08:17:04.987Z,29.60
2018-07-25T08:19:34.300Z,29.70
2018-07-25T08:22:03.376Z,29.90
2018-07-25T08:24:39.987Z,30.00
2018-07-25T08:27:08.947Z,30.10
2018-07-25T08:29:37.947Z,30.20
2018-07-25T08:32:07.078Z,30.20
2018-07-25T08:34:36.124Z,30.30
2018-07-25T08:37:05.337Z,30.40
2018-07-25T08:39:34.380Z,30.40
2018-07-25T08:42:03.500Z,30.30
2018-07-25T08:44:32.555Z,30.40
2018-07-25T08:47:01.657Z,30.40
2018-07-25T08:49:30.645Z,30.50
2018-07-25T08:51:59.773Z,30.50
2018-07-25T08:54:29.261Z,30.50
2018-07-25T08:56:59.363Z,30.50
2018-07-25T09:01:57.051Z,30.70
2018-07-25T09:04:26.008Z,30.70
2018-07-25T09:06:55.968Z,30.70
2018-07-25T09:09:25.074Z,30.80
2018-07-25T09:11:54.086Z,30.80
2018-07-25T09:14:23.124Z,31.00
2018-07-25T09:16:52.149Z,31.10
2018-07-25T09:19:21.136Z,31.20
2018-07-25T09:21:50.136Z,31.30
2018-07-25T09:24:19.239Z,31.30
2018-07-25T09:26:48.259Z,31.30
2018-07-25T09:29:17.322Z,31.40
2018-07-25T09:31:46.319Z,31.40
2018-07-25T09:34:15.395Z,31.40
2018-07-25T09:36:44.256Z,31.30
2018-07-25T09:41:41.895Z,31.50
2018-07-25T09:44:10.880Z,31.40
2018-07-25T09:46:39.942Z,31.50
2018-07-25T09:49:09.020Z,31.60
2018-07-25T09:51:38.102Z,31.50
2018-07-25T09:54:07.150Z,31.60
2018-07-25T09:59:04.869Z,31.70
2018-07-25T10:01:33.791Z,31.90
2018-07-25T10:04:02.809Z,32.00
2018-07-25T10:06:31.790Z,32.00
2018-07-25T10:09:00.791Z,32.00
2018-07-25T10:11:29.784Z,31.80
2018-07-25T10:13:58.747Z,31.80
2018-07-25T10:16:27.962Z,31.70
2018-07-25T10:21:25.731Z,31.80
2018-07-25T10:23:54.749Z,31.80
2018-07-25T10:28:52.506Z,31.90
2018-07-25T10:31:21.444Z,31.80
2018-07-25T10:33:50.447Z,31.70
2018-07-25T10:36:19.400Z,31.80
2018-07-25T10:38:48.411Z,31.80
2018-07-25T10:41:17.414Z,32.00
2018-07-25T10:43:46.483Z,32.20
2018-07-25T10:46:15.460Z,32.30
2018-07-25T10:48:44.513Z,32.50
2018-07-25T10:51:13.566Z,32.60
2018-07-25T10:53:42.563Z,32.90
2018-07-25T10:56:11.547Z,33.20
2018-07-25T10:58:40.541Z,33.60
2018-07-25T11:01:09.507Z,33.90
2018-07-25T11:03:38.528Z,34.00
2018-07-25T11:06:07.490Z,34.10
2018-07-25T11:08:36.486Z,33.90
2018-07-25T11:11:05.551Z,34.00
2018-07-25T11:13:34.544Z,34.20
2018-07-25T11:16:03.643Z,34.10
2018-07-25T11:18:32.673Z,33.60
2018-07-25T11:21:01.661Z,33.30
2018-07-25T11:23:30.684Z,33.10
2018-07-25T11:28:28.341Z,33.10
2018-07-25T11:30:57.348Z,33.20
2018-07-25T11:33:26.360Z,32.90
2018-07-25T11:35:55.357Z,32.90
2018-07-25T11:38:24.394Z,33.00
2018-07-25T11:40:53.435Z,32.90
2018-07-25T11:43:22.434Z,32.80
2018-07-25T11:45:51.556Z,32.70
2018-07-25T11:48:20.528Z,32.90
2018-07-25T11:50:49.600Z,33.00
2018-07-25T11:53:18.591Z,33.10
2018-07-25T11:55:47.560Z,33.10
2018-07-25T11:58:16.568Z,33.20
2018-07-25T12:00:45.556Z,33.30
2018-07-25T12:03:14.553Z,33.40
2018-07-25T12:05:43.551Z,33.40
2018-07-25T12:08:12.522Z,33.40
2018-07-25T12:10:41.852Z,33.50
2018-07-25T12:13:10.920Z,33.60
2018-07-25T12:15:40.302Z,33.60
2018-07-25T12:18:09.316Z,33.50
2018-07-25T12:20:38.327Z,33.30
2018-07-25T12:23:07.355Z,33.40
2018-07-25T12:25:36.360Z,33.60
2018-07-25T12:28:06.012Z,33.70
2018-07-25T12:30:35.057Z,33.90
2018-07-25T12:33:04.116Z,34.20
2018-07-25T12:35:33.193Z,34.30
2018-07-25T12:38:02.272Z,34.40
2018-07-25T12:40:31.314Z,34.60
2018-07-25T12:43:00.621Z,34.80
2018-07-25T12:45:29.660Z,34.80
2018-07-25T12:47:58.962Z,34.80
2018-07-25T12:50:28.095Z,34.60
2018-07-25T12:52:57.063Z,34.60
2018-07-25T12:55:26.160Z,34.50
2018-07-25T12:57:55.182Z,34.40
2018-07-25T13:00:24.216Z,34.40
2018-07-25T13:02:53.213Z,34.40
2018-07-25T13:05:22.285Z,34.40
2018-07-25T13:07:51.319Z,34.40
2018-07-25T13:10:20.324Z,34.70
2018-07-25T13:12:49.347Z,34.80
2018-07-25T13:15:18.343Z,35.00
2018-07-25T13:17:47.287Z,35.20
2018-07-25T13:20:16.463Z,35.40
2018-07-25T13:22:45.513Z,35.50
2018-07-25T13:25:14.475Z,35.50
2018-07-25T13:27:43.507Z,35.50
2018-07-25T13:30:12.535Z,35.50
2018-07-25T13:32:41.666Z,35.50
2018-07-25T13:35:10.785Z,35.30
2018-07-25T13:37:39.782Z,35.20
2018-07-25T13:40:08.953Z,35.20
2018-07-25T13:42:37.980Z,35.20
2018-07-25T13:45:07.032Z,35.20
2018-07-25T13:47:36.114Z,35.20
2018-07-25T13:50:05.407Z,35.20
2018-07-25T13:52:34.774Z,35.10
2018-07-25T13:55:03.870Z,35.10
2018-07-25T13:57:32.858Z,35.20
2018-07-25T14:00:01.872Z,35.20
2018-07-25T14:02:30.841Z,35.10
2018-07-25T14:04:59.847Z,35.20
2018-07-25T14:07:28.835Z,35.40
2018-07-25T14:09:57.965Z,35.60
2018-07-25T14:12:27.326Z,35.90
2018-07-25T14:14:56.315Z,36.00
2018-07-25T14:19:53.997Z,36.10
2018-07-25T14:22:22.967Z,36.20
2018-07-25T14:24:52.051Z,36.40
2018-07-25T14:27:21.117Z,36.70
2018-07-25T14:29:50.098Z,36.90
2018-07-25T14:32:19.177Z,36.80
2018-07-25T14:37:16.787Z,36.40
2018-07-25T14:39:45.901Z,36.10
2018-07-25T14:42:14.851Z,36.20
2018-07-25T14:44:43.873Z,36.10
2018-07-25T14:47:13.037Z,36.10
2018-07-25T14:49:41.896Z,36.00
2018-07-25T14:52:11.147Z,35.90
2018-07-25T14:54:40.119Z,35.90
2018-07-25T14:57:09.139Z,35.70
2018-07-25T15:02:06.816Z,36.00
2018-07-25T15:07:04.654Z,36.10
2018-07-25T15:09:33.684Z,35.90
2018-07-25T15:12:02.673Z,35.50
2018-07-25T15:14:31.627Z,35.20
2018-07-25T15:17:00.726Z,35.10
2018-07-25T15:19:30.028Z,35.00
2018-07-25T15:21:58.975Z,35.00
2018-07-25T15:24:27.964Z,34.90
2018-07-25T15:26:56.926Z,35.10
2018-07-25T15:29:25.929Z,35.60
2018-07-25T15:31:54.968Z,36.30
2018-07-25T15:34:23.939Z,36.70
2018-07-25T15:36:53.663Z,37.00
2018-07-25T15:39:23.779Z,37.70
2018-07-25T15:41:53.881Z,39.10
2018-07-25T15:44:23.784Z,40.00
2018-07-25T15:46:52.762Z,41.30
2018-07-25T15:49:21.879Z,41.30
2018-07-25T15:51:50.866Z,41.70
2018-07-25T15:54:19.815Z,42.10
2018-07-25T15:56:48.896Z,41.80
2018-07-25T15:59:17.905Z,41.10
2018-07-25T16:01:46.946Z,40.40
2018-07-25T16:04:15.951Z,39.70
2018-07-25T16:06:44.903Z,39.40
2018-07-25T16:09:13.984Z,39.30
2018-07-25T16:11:42.991Z,39.60
2018-07-25T16:16:40.770Z,42.50
2018-07-25T16:19:09.788Z,43.50
2018-07-25T16:24:07.435Z,45.40
2018-07-25T16:26:36.472Z,46.10
2018-07-25T16:29:05.551Z,47.10
2018-07-25T16:31:34.572Z,47.70
2018-07-25T16:34:03.724Z,48.10
2018-07-25T16:36:32.738Z,47.70
2018-07-25T16:39:01.717Z,47.20
2018-07-25T16:41:30.719Z,47.50
2018-07-25T16:43:59.762Z,47.70
2018-07-25T16:46:28.829Z,48.00
2018-07-25T16:48:57.823Z,47.70
2018-07-25T16:51:26.790Z,47.40
2018-07-25T16:53:55.869Z,46.90
2018-07-25T16:56:24.857Z,46.80
2018-07-25T16:58:53.838Z,47.10
2018-07-25T17:01:22.859Z,47.50
2018-07-25T17:03:51.882Z,47.70
2018-07-25T17:06:21.101Z,47.70
2018-07-25T17:08:50.171Z,47.90
2018-07-25T17:11:19.148Z,47.70
2018-07-25T17:13:48.156Z,47.00
2018-07-25T17:16:17.291Z,46.80
2018-07-25T17:18:46.374Z,46.70
2018-07-25T17:21:15.372Z,46.10
2018-07-25T17:23:44.325Z,45.00
2018-07-25T17:26:13.311Z,43.20
2018-07-25T17:28:42.401Z,41.70
2018-07-25T17:31:11.365Z,40.80
2018-07-25T17:33:40.334Z,40.20
2018-07-25T17:36:09.399Z,39.10
2018-07-25T17:38:38.371Z,38.40
2018-07-25T17:41:07.361Z,37.50
2018-07-25T17:43:36.302Z,36.60
2018-07-25T17:46:05.279Z,35.90
2018-07-25T17:48:34.360Z,35.40
2018-07-25T17:51:03.287Z,35.10
2018-07-25T17:53:33.037Z,34.80
2018-07-25T17:56:02.059Z,34.40
2018-07-25T18:00:59.636Z,34.10
2018-07-25T18:03:28.763Z,34.00
2018-07-25T18:05:57.655Z,33.90
2018-07-25T18:08:27.187Z,33.90
2018-07-25T18:10:56.420Z,33.70
2018-07-25T18:13:31.192Z,33.70
2018-07-25T18:16:00.191Z,33.70
2018-07-25T18:18:29.163Z,33.50
2018-07-25T18:20:58.790Z,33.30
2018-07-25T18:23:27.750Z,33.20
2018-07-25T18:25:56.831Z,33.10
2018-07-25T18:28:25.807Z,32.90
2018-07-25T18:30:54.795Z,32.70
2018-07-25T18:33:23.844Z,32.50
2018-07-25T18:35:54.301Z,32.30
2018-07-25T18:38:23.299Z,32.20
2018-07-25T18:40:52.309Z,32.00
2018-07-25T18:45:50.019Z,31.70
2018-07-25T18:48:19.073Z,31.60
2018-07-25T18:50:48.363Z,31.50
2018-07-25T18:53:17.439Z,31.40
2018-07-25T18:55:46.401Z,31.30
2018-07-25T18:58:15.362Z,31.20
2018-07-25T19:00:45.107Z,31.00
2018-07-25T19:05:43.340Z,30.90
2018-07-25T19:08:12.483Z,30.80
2018-07-25T19:10:41.456Z,30.70
2018-07-25T19:13:15.669Z,30.60
2018-07-25T19:15:44.707Z,30.60
2018-07-25T19:18:13.680Z,30.50
2018-07-25T19:20:42.615Z,30.30
2018-07-25T19:23:11.599Z,30.30
2018-07-25T19:25:40.572Z,30.20
2018-07-25T19:28:09.524Z,30.10
2018-07-25T19:30:38.518Z,30.00
2018-07-25T19:33:07.595Z,30.00
2018-07-25T19:35:36.585Z,29.90
2018-07-25T19:38:05.595Z,29.70
2018-07-25T19:40:34.636Z,29.70
2018-07-25T19:43:03.612Z,29.60
2018-07-25T19:45:32.628Z,29.50
2018-07-25T19:48:01.584Z,29.30
2018-07-25T19:50:30.623Z,29.30
2018-07-25T19:52:59.512Z,29.30
2018-07-25T19:55:28.495Z,29.20
2018-07-25T19:57:57.463Z,29.10
2018-07-25T20:00:26.508Z,28.90
2018-07-25T20:02:55.410Z,28.70
2018-07-25T20:05:24.988Z,28.60
2018-07-25T20:07:53.935Z,28.40
2018-07-25T20:10:22.887Z,28.30
2018-07-25T20:12:51.870Z,28.30
2018-07-25T20:15:26.289Z,28.20
2018-07-25T20:17:55.602Z,28.20
2018-07-25T20:20:24.599Z,28.20
2018-07-25T20:22:53.563Z,28.20
2018-07-25T20:25:22.543Z,28.10
2018-07-25T20:27:51.611Z,28.20
2018-07-25T20:30:20.583Z,28.10
2018-07-25T20:32:49.565Z,28.20
2018-07-25T20:35:18.607Z,28.20
2018-07-25T20:37:48.103Z,28.20
2018-07-25T20:42:45.775Z,28.20
2018-07-25T20:45:14.708Z,28.30
2018-07-25T20:47:44.014Z,28.20
2018-07-25T20:50:13.032Z,28.20
2018-07-25T20:52:42.075Z,28.20
2018-07-25T20:55:10.973Z,28.20
2018-07-25T20:57:39.991Z,28.10
2018-07-25T21:00:08.953Z,28.10
2018-07-25T21:05:06.621Z,28.00
2018-07-25T21:07:35.580Z,28.00
2018-07-25T21:10:04.752Z,27.90
2018-07-25T21:12:33.704Z,27.80
2018-07-25T21:15:02.632Z,27.70
2018-07-25T21:17:31.622Z,27.60
2018-07-25T21:20:00.651Z,27.50
2018-07-25T21:22:30.580Z,27.40
2018-07-25T21:24:59.571Z,27.40
2018-07-25T21:27:28.515Z,27.30
2018-07-25T21:29:57.652Z,27.20
2018-07-25T21:32:26.631Z,27.10
2018-07-25T21:34:55.612Z,27.00
2018-07-25T21:37:24.672Z,27.00
2018-07-25T21:39:53.596Z,27.00
2018-07-25T21:42:22.688Z,26.90
2018-07-25T21:44:51.720Z,26.90
2018-07-25T21:47:20.663Z,26.90
2018-07-25T21:49:49.671Z,26.80
2018-07-25T21:52:18.667Z,26.80
2018-07-25T21:54:47.695Z,26.70
2018-07-25T21:57:16.744Z,26.70
2018-07-25T21:59:45.710Z,26.60
2018-07-25T22:02:14.677Z,26.50
2018-07-25T22:04:43.668Z,26.50
2018-07-25T22:07:12.674Z,26.50
2018-07-25T22:09:41.632Z,26.50
2018-07-25T22:12:10.616Z,26.40
2018-07-25T22:14:39.591Z,26.40
2018-07-25T22:17:08.559Z,26.30
2018-07-25T22:19:37.545Z,26.30
2018-07-25T22:22:06.705Z,26.30
2018-07-25T22:24:36.203Z,26.30
2018-07-25T22:27:05.249Z,26.20
2018-07-25T22:29:34.249Z,26.20
2018-07-25T22:32:03.283Z,26.10
2018-07-25T22:34:32.303Z,26.10
2018-07-25T22:37:01.271Z,26.00
2018-07-25T22:39:30.259Z,26.00
2018-07-25T22:41:59.228Z,26.00
2018-07-25T22:44:28.219Z,25.90
2018-07-25T22:46:57.291Z,25.90
2018-07-25T22:49:26.266Z,25.80
2018-07-25T22:51:55.219Z,25.80
2018-07-25T22:54:24.204Z,25.80
2018-07-25T22:56:53.147Z,25.70
2018-07-25T22:59:22.116Z,25.70
2018-07-25T23:01:51.187Z,25.70
2018-07-25T23:04:20.144Z,25.70
2018-07-25T23:09:17.791Z,25.60
2018-07-25T23:11:46.776Z,25.60
2018-07-25T23:14:15.795Z,25.60
2018-07-25T23:16:44.772Z,25.50
2018-07-25T23:19:13.761Z,25.50
2018-07-25T23:21:42.748Z,25.50
2018-07-25T23:24:11.766Z,25.50
2018-07-25T23:26:40.867Z,25.50
2018-07-25T23:29:09.855Z,25.50
2018-07-25T23:31:38.797Z,25.40
2018-07-25T23:34:07.783Z,25.30
2018-07-25T23:36:36.833Z,25.30
2018-07-25T23:39:07.819Z,25.30
2018-07-25T23:41:37.173Z,25.20
2018-07-25T23:44:06.167Z,25.20
2018-07-25T23:46:35.187Z,25.10
2018-07-25T23:49:04.299Z,25.10
2018-07-25T23:51:33.300Z,25.10
2018-07-25T23:54:02.487Z,25.10
2018-07-25T23:56:31.472Z,25.10
2018-07-25T23:59:00.490Z,25.00
